Time;durP1;ratioP1;P1;durP2;ratioP2;P2;SDS_P1;SDS_P2;PMS_P1;PMS_P2;Temp;Humidity;BMP_temperature;BMP_pressure;BME280_temperature;BME280_humidity;BME280_pressure;Samples;Min_cycle;Max_cycle;Signal;HPM_P1;HPM_P2
2022/04/27 00:00:22;;;;;;;21.38;14.65;;;4.60;99.90;;;;;;5025415;28;20057;-65
2022/04/27 00:02:48;;;;;;;23.92;15.50;;;4.60;99.90;;;;;;5026728;28;20041;-65
2022/04/27 00:05:14;;;;;;;23.25;15.68;;;4.60;99.90;;;;;;5025401;28;20045;-65
2022/04/27 00:07:40;;;;;;;25.00;16.58;;;4.50;99.90;;;;;;5024275;28;20041;-65
2022/04/27 00:10:06;;;;;;;26.00;16.77;;;4.50;99.90;;;;;;5023478;28;20462;-65
2022/04/27 00:12:37;;;;;;;24.98;17.15;;;4.40;99.90;;;;;;5024926;28;20563;-65
2022/04/27 00:15:06;;;;;;;26.52;15.88;;;4.40;99.90;;;;;;5024842;28;20047;-65
2022/04/27 00:17:32;;;;;;;25.30;15.45;;;4.30;99.90;;;;;;5024948;28;20053;-64
2022/04/27 00:19:58;;;;;;;21.52;17.08;;;4.30;99.90;;;;;;5025699;28;20092;-65
2022/04/27 00:22:27;;;;;;;20.48;16.38;;;4.30;99.90;;;;;;5024410;28;20128;-65
2022/04/27 00:24:52;;;;;;;;;;;4.20;99.90;;;;;;5025558;28;20497;-65
2022/04/27 00:27:18;;;;;;;25.10;16.30;;;4.20;99.90;;;;;;5032415;28;19924;-65
2022/04/27 00:29:44;;;;;;;20.98;15.73;;;4.10;99.90;;;;;;5043663;28;20053;-65
2022/04/27 00:32:09;;;;;;;23.92;16.77;;;4.10;99.90;;;;;;5042557;28;20049;-65
2022/04/27 00:34:35;;;;;;;28.88;18.00;;;4.10;99.90;;;;;;5026452;28;20049;-65
2022/04/27 00:37:01;;;;;;;29.98;17.20;;;4.00;99.90;;;;;;5024399;28;20056;-65
2022/04/27 00:39:26;;;;;;;28.27;17.70;;;4.00;99.90;;;;;;5023380;28;20409;-65
2022/04/27 00:42:02;;;;;;;24.95;18.80;;;4.00;99.90;;;;;;5021947;28;20564;-65
2022/04/27 00:44:27;;;;;;;24.23;17.92;;;4.00;99.90;;;;;;5022968;28;20143;-64
2022/04/27 00:46:53;;;;;;;28.63;20.08;;;4.00;99.90;;;;;;5024835;28;20150;-65
2022/04/27 00:49:18;;;;;;;28.58;18.25;;;4.00;99.90;;;;;;5023588;28;20123;-65
2022/04/27 00:51:45;;;;;;;19.00;16.00;;;3.90;99.90;;;;;;5023970;28;20042;-65
2022/04/27 00:54:11;;;;;;;42.92;16.77;;;3.80;99.90;;;;;;5024033;28;20041;-65
2022/04/27 00:56:39;;;;;;;23.75;17.08;;;3.70;99.90;;;;;;5024389;28;20065;-65
2022/04/27 00:59:05;;;;;;;21.55;16.70;;;3.70;99.90;;;;;;5024334;28;20040;-65
2022/04/27 01:01:31;;;;;;;22.42;16.88;;;3.70;99.90;;;;;;5022958;28;20956;-65
2022/04/27 01:03:56;;;;;;;25.20;17.55;;;3.70;99.90;;;;;;5022566;28;20033;-64
2022/04/27 01:06:22;;;;;;;24.55;16.40;;;3.70;99.90;;;;;;5022554;28;20041;-65
2022/04/27 01:08:48;;;;;;;27.48;17.92;;;3.70;99.90;;;;;;5023925;28;20108;-65
2022/04/27 01:11:15;;;;;;;28.63;18.42;;;3.70;99.90;;;;;;5022434;28;20049;-65
2022/04/27 01:13:41;;;;;;;24.90;17.20;;;3.70;99.90;;;;;;5020059;28;20041;-65
2022/04/27 01:16:07;;;;;;;30.20;16.70;;;3.60;99.90;;;;;;5025383;28;20600;-64
2022/04/27 01:18:34;;;;;;;28.55;17.17;;;3.60;99.90;;;;;;5023460;28;20740;-64
2022/04/27 01:21:01;;;;;;;23.58;16.08;;;3.60;99.90;;;;;;5024302;28;20046;-65
2022/04/27 01:23:26;;;;;;;28.42;18.10;;;3.50;99.90;;;;;;5023796;28;20552;-65
2022/04/27 01:25:54;;;;;;;31.25;19.88;;;3.40;99.90;;;;;;5022631;28;20509;-65
2022/04/27 01:28:24;;;;;;;28.60;19.42;;;3.30;99.90;;;;;;5024438;28;20498;-64
2022/04/27 01:30:57;;;;;;;20.15;14.95;;;3.20;99.90;;;;;;5023417;28;20525;-64
2022/04/27 01:33:24;;;;;;;21.77;15.75;;;3.10;99.90;;;;;;5018190;28;20049;-65
2022/04/27 01:35:49;;;;;;;24.00;16.60;;;3.10;99.90;;;;;;5024458;28;20072;-64
2022/04/27 01:38:16;;;;;;;29.02;15.18;;;3.00;99.90;;;;;;5023006;28;20503;-64
2022/04/27 01:40:42;;;;;;;23.73;17.50;;;3.00;99.90;;;;;;5022886;28;20049;-65
2022/04/27 01:43:08;;;;;;;24.48;16.92;;;3.00;99.90;;;;;;5022190;28;20402;-64
2022/04/27 01:45:34;;;;;;;26.70;18.15;;;3.00;99.90;;;;;;5020204;28;20046;-65
2022/04/27 01:47:59;;;;;;;30.17;19.42;;;3.00;99.90;;;;;;5023535;28;20041;-65
2022/04/27 01:50:25;;;;;;;25.35;17.60;;;3.00;99.90;;;;;;5024374;28;20037;-65
2022/04/27 01:55:36;;;;;;;32.40;19.23;;;3.00;99.90;;;;;;5026065;28;20103;-65
2022/04/27 01:58:02;;;;;;;32.75;19.75;;;3.10;99.90;;;;;;5028246;28;20437;-64
2022/04/27 02:00:29;;;;;;;30.00;18.80;;;3.10;99.90;;;;;;5026133;28;20095;-64
2022/04/27 02:02:56;;;;;;;33.70;20.05;;;3.00;99.90;;;;;;5026229;28;20069;-64
2022/04/27 02:05:22;;;;;;;31.80;20.10;;;3.00;99.90;;;;;;5026420;28;20160;-65
2022/04/27 02:07:47;;;;;;;31.35;19.77;;;3.00;99.90;;;;;;5026532;28;20048;-65
2022/04/27 02:10:13;;;;;;;34.22;20.63;;;3.10;99.90;;;;;;5042068;28;20054;-65
2022/04/27 02:12:39;;;;;;;33.53;19.17;;;3.10;99.90;;;;;;5026918;28;20049;-65
2022/04/27 02:15:06;;;;;;;31.48;19.83;;;3.10;99.90;;;;;;5027546;28;20041;-65
2022/04/27 02:17:32;;;;;;;41.08;20.65;;;3.20;99.90;;;;;;5026824;28;20053;-65
2022/04/27 02:19:58;;;;;;;33.15;22.30;;;3.20;99.90;;;;;;5028127;28;21064;-65
2022/04/27 02:22:23;;;;;;;34.38;22.20;;;3.20;99.90;;;;;;5026084;28;20139;-65
2022/04/27 02:24:49;;;;;;;32.70;21.98;;;3.20;99.90;;;;;;5027480;28;20049;-65
2022/04/27 02:27:15;;;;;;;34.95;21.15;;;3.20;99.90;;;;;;5009441;28;20460;-65
2022/04/27 02:29:41;;;;;;;34.85;21.70;;;3.30;99.90;;;;;;5026817;28;20117;-65
2022/04/27 02:32:07;;;;;;;32.05;21.02;;;3.30;99.90;;;;;;5024576;28;20057;-65
2022/04/27 02:34:32;;;;;;;35.80;21.42;;;3.30;99.90;;;;;;5027428;28;20045;-65
2022/04/27 02:36:58;;;;;;;33.90;21.75;;;3.40;99.90;;;;;;5026397;28;20124;-65
2022/04/27 02:39:24;;;;;;;37.90;22.90;;;3.40;99.90;;;;;;5026790;28;20049;-64
2022/04/27 02:41:49;;;;;;;41.22;22.70;;;3.40;99.90;;;;;;5026830;28;20044;-65
2022/04/27 02:44:15;;;;;;;30.67;22.55;;;3.50;99.90;;;;;;5024111;28;20049;-66
2022/04/27 02:46:41;;;;;;;38.80;23.05;;;3.50;99.90;;;;;;5025180;28;20046;-65
2022/04/27 02:51:52;;;;;;;41.38;23.65;;;3.60;99.90;;;;;;5025094;28;20216;-65
2022/04/27 02:54:22;;;;;;;31.83;22.35;;;3.70;99.90;;;;;;5027610;28;20128;-65
2022/04/27 02:56:50;;;;;;;29.30;21.23;;;3.70;99.90;;;;;;5026148;28;20045;-65
2022/04/27 02:59:16;;;;;;;36.95;24.52;;;3.70;99.90;;;;;;5025647;28;20045;-65
2022/04/27 03:01:42;;;;;;;39.10;23.52;;;3.70;99.90;;;;;;5025418;28;20080;-65
2022/04/27 03:04:09;;;;;;;31.80;21.83;;;3.80;99.90;;;;;;5025544;28;20087;-65
2022/04/27 03:06:35;;;;;;;38.72;20.52;;;3.80;99.90;;;;;;5024423;28;20060;-65
2022/04/27 03:09:01;;;;;;;42.78;24.50;;;3.80;99.90;;;;;;5025944;28;20050;-65
2022/04/27 03:11:27;;;;;;;38.92;21.90;;;3.90;99.90;;;;;;5025557;28;20041;-65
2022/04/27 03:13:53;;;;;;;37.58;22.85;;;3.90;99.90;;;;;;5025077;28;20111;-65
2022/04/27 03:16:18;;;;;;;34.70;23.25;;;3.90;99.90;;;;;;5042411;28;20049;-65
2022/04/27 03:18:44;;;;;;;39.63;22.10;;;3.90;99.90;;;;;;5026197;28;20548;-65
2022/04/27 03:21:10;;;;;;;36.40;22.23;;;3.90;99.90;;;;;;5024660;28;20042;-65
2022/04/27 03:23:36;;;;;;;47.50;25.58;;;4.00;99.90;;;;;;5025698;28;20398;-65
2022/04/27 03:26:02;;;;;;;31.25;23.42;;;4.00;99.90;;;;;;5026285;28;20052;-65
2022/04/27 03:28:28;;;;;;;38.75;23.38;;;4.10;99.90;;;;;;5026430;28;20049;-65
2022/04/27 03:30:54;;;;;;;43.13;23.60;;;4.10;99.90;;;;;;5024840;28;20658;-65
2022/04/27 03:33:20;;;;;;;27.50;20.27;;;4.10;99.90;;;;;;5024647;28;20045;-65
2022/04/27 03:35:46;;;;;;;26.67;20.05;;;4.20;99.90;;;;;;5026440;28;20442;-65
2022/04/27 03:38:13;;;;;;;35.22;21.92;;;4.20;99.90;;;;;;5024014;28;20056;-65
2022/04/27 03:40:39;;;;;;;29.48;20.23;;;4.20;99.90;;;;;;5023339;28;20577;-65
2022/04/27 03:43:05;;;;;;;29.17;20.48;;;4.30;99.90;;;;;;5025002;28;20055;-64
2022/04/27 03:45:31;;;;;;;27.42;20.65;;;4.30;99.90;;;;;;5025058;28;20069;-65
2022/04/27 03:47:57;;;;;;;29.98;21.55;;;4.30;99.90;;;;;;5025614;28;20041;-65
2022/04/27 03:50:22;;;;;;;27.20;20.23;;;4.30;99.90;;;;;;5025652;28;20141;-65
2022/04/27 03:52:48;;;;;;;30.15;21.65;;;4.30;99.90;;;;;;5025245;28;21528;-65
2022/04/27 03:55:14;;;;;;;44.45;19.80;;;4.30;99.90;;;;;;5020549;28;20084;-65
2022/04/27 03:57:40;;;;;;;29.67;19.90;;;4.40;99.90;;;;;;5022841;28;20042;-65
2022/04/27 04:00:07;;;;;;;30.13;19.80;;;4.40;99.90;;;;;;5023510;28;20045;-65
2022/04/27 04:02:33;;;;;;;26.30;19.77;;;4.40;99.90;;;;;;5021624;28;20145;-65
2022/04/27 04:04:59;;;;;;;38.03;21.58;;;4.50;99.90;;;;;;5017157;28;20037;-65
2022/04/27 04:07:25;;;;;;;34.45;18.83;;;4.50;99.90;;;;;;5022813;28;20049;-65
2022/04/27 04:09:50;;;;;;;50.03;19.85;;;4.50;99.90;;;;;;5022871;28;20050;-65
2022/04/27 04:12:16;;;;;;;29.55;21.13;;;4.50;99.90;;;;;;5024248;28;20046;-65
2022/04/27 04:14:42;;;;;;;29.92;19.30;;;4.60;99.90;;;;;;5024816;28;20047;-64
2022/04/27 04:17:08;;;;;;;23.55;17.88;;;4.60;99.90;;;;;;5027880;28;20087;-65
2022/04/27 04:19:34;;;;;;;23.98;18.70;;;4.60;99.90;;;;;;5024068;28;20425;-65
2022/04/27 04:22:00;;;;;;;26.33;19.02;;;4.70;99.90;;;;;;5022928;28;20038;-65
2022/04/27 04:24:26;;;;;;;24.95;17.42;;;4.70;99.90;;;;;;5022896;28;20049;-65
2022/04/27 04:29:38;;;;;;;30.60;20.90;;;4.80;99.90;;;;;;5023274;28;20913;-65
2022/04/27 04:32:04;;;;;;;28.08;18.67;;;4.80;99.90;;;;;;5024622;28;20053;-65
2022/04/27 04:34:29;;;;;;;35.67;21.40;;;4.80;99.90;;;;;;5025011;28;20029;-64
2022/04/27 04:36:55;;;;;;;33.00;20.92;;;4.90;99.90;;;;;;5024134;28;20107;-64
2022/04/27 04:39:21;;;;;;;35.17;19.90;;;4.90;99.90;;;;;;5023084;28;20073;-65
2022/04/27 04:41:46;;;;;;;28.65;18.73;;;4.90;99.90;;;;;;5020618;28;20623;-65
2022/04/27 04:44:12;;;;;;;28.65;22.02;;;5.00;99.90;;;;;;5020579;28;20065;-65
2022/04/27 04:46:38;;;;;;;40.25;22.08;;;5.00;99.90;;;;;;5023839;28;20402;-64
2022/04/27 04:49:03;;;;;;;25.08;17.88;;;5.00;99.90;;;;;;5023858;28;20486;-65
2022/04/27 04:51:29;;;;;;;28.73;20.20;;;5.10;99.90;;;;;;5024012;28;20152;-65
2022/04/27 04:53:55;;;;;;;35.80;20.10;;;5.10;99.90;;;;;;5024994;28;20045;-65
2022/04/27 04:56:21;;;;;;;29.92;20.02;;;5.10;99.90;;;;;;5024239;28;20033;-65
2022/04/27 04:58:47;;;;;;;33.03;22.30;;;5.20;99.90;;;;;;5022336;28;20110;-65
2022/04/27 05:01:12;;;;;;;36.70;21.45;;;5.20;99.90;;;;;;5033399;28;20103;-65
2022/04/27 05:03:38;;;;;;;31.30;21.45;;;5.20;99.90;;;;;;5028936;28;20045;-65
2022/04/27 05:06:04;;;;;;;34.65;21.30;;;5.30;99.90;;;;;;5026491;28;20517;-65
2022/04/27 05:08:30;;;;;;;29.52;19.88;;;5.30;99.90;;;;;;5025967;28;20542;-65
2022/04/27 05:10:56;;;;;;;35.80;20.77;;;5.30;99.90;;;;;;5027784;28;20097;-65
2022/04/27 05:13:21;;;;;;;28.77;20.08;;;5.40;99.90;;;;;;5027939;28;20143;-65
2022/04/27 05:15:48;;;;;;;28.58;20.60;;;5.40;99.90;;;;;;5020169;28;20100;-65
2022/04/27 05:18:14;;;;;;;32.58;20.77;;;5.40;99.90;;;;;;5021850;28;20132;-65
2022/04/27 05:20:40;;;;;;;35.88;19.75;;;5.50;99.90;;;;;;5028008;28;20041;-65
2022/04/27 05:23:06;;;;;;;30.08;20.33;;;5.50;99.90;;;;;;5024268;28;20128;-64
2022/04/27 05:25:34;;;;;;;35.75;20.65;;;5.60;99.90;;;;;;5027132;28;20049;-64
2022/04/27 05:28:02;;;;;;;41.35;20.27;;;5.60;99.90;;;;;;5030860;28;20086;-65
2022/04/27 05:33:12;;;;;;;32.45;20.23;;;5.70;99.90;;;;;;5030214;28;20171;-64
2022/04/27 05:35:40;;;;;;;32.47;22.33;;;5.80;99.90;;;;;;5026170;28;20790;-64
2022/04/27 05:38:05;;;;;;;37.40;20.85;;;5.80;99.90;;;;;;5027468;28;20042;-64
2022/04/27 05:40:31;;;;;;;36.40;21.42;;;5.90;99.90;;;;;;5026966;28;20056;-64
2022/04/27 05:42:57;;;;;;;32.95;20.00;;;5.90;99.90;;;;;;5027737;28;20065;-64
2022/04/27 05:45:24;;;;;;;28.00;20.33;;;5.90;99.90;;;;;;5028233;28;20088;-64
2022/04/27 05:47:49;;;;;;;32.22;22.40;;;6.00;99.90;;;;;;5025702;28;20033;-64
2022/04/27 05:50:16;;;;;;;30.30;22.42;;;6.10;99.90;;;;;;5028198;28;20465;-64
2022/04/27 05:52:59;;;;;;;34.20;19.88;;;6.10;99.90;;;;;;5028466;28;20037;-64
2022/04/27 05:55:25;;;;;;;35.22;19.98;;;6.20;99.90;;;;;;5029761;28;20116;-64
2022/04/27 05:57:52;;;;;;;31.60;20.35;;;6.20;99.90;;;;;;5027419;28;20045;-64
2022/04/27 06:00:19;;;;;;;42.25;21.52;;;6.30;99.90;;;;;;5025540;28;20041;-64
2022/04/27 06:02:45;;;;;;;35.78;21.80;;;6.30;99.90;;;;;;5027146;28;20589;-64
2022/04/27 06:05:11;;;;;;;32.03;20.90;;;6.30;99.90;;;;;;5025046;28;20088;-64
2022/04/27 06:07:38;;;;;;;36.10;21.45;;;6.40;99.90;;;;;;5027898;28;20041;-64
2022/04/27 06:10:08;;;;;;;31.88;21.48;;;6.40;99.90;;;;;;5027433;28;20053;-64
2022/04/27 06:12:36;;;;;;;36.25;21.90;;;6.50;99.90;;;;;;5029417;28;20041;-64
2022/04/27 06:15:03;;;;;;;42.10;23.42;;;6.50;99.90;;;;;;5026971;28;20060;-64
2022/04/27 06:17:30;;;;;;;34.20;22.02;;;6.50;99.90;;;;;;5026549;28;20049;-64
2022/04/27 06:19:57;;;;;;;27.98;19.85;;;6.60;99.90;;;;;;5028831;28;20049;-64
2022/04/27 06:22:22;;;;;;;29.73;21.05;;;6.60;99.90;;;;;;5028075;28;20103;-64
2022/04/27 06:24:48;;;;;;;31.27;20.13;;;6.70;99.90;;;;;;5029192;28;20506;-64
2022/04/27 06:27:14;;;;;;;28.02;19.95;;;6.70;99.90;;;;;;5028660;28;20044;-64
2022/04/27 06:29:40;;;;;;;33.78;21.27;;;6.80;99.90;;;;;;5031838;28;20078;-64
2022/04/27 06:32:06;;;;;;;31.73;20.52;;;6.80;99.90;;;;;;5030463;28;20045;-64
2022/04/27 06:34:31;;;;;;;30.00;19.33;;;6.80;99.90;;;;;;5026929;28;20576;-64
2022/04/27 06:36:57;;;;;;;40.00;22.13;;;6.90;99.90;;;;;;5029951;28;20061;-65
2022/04/27 06:39:25;;;;;;;27.90;17.77;;;6.90;99.90;;;;;;5028563;28;20441;-64
2022/04/27 06:41:50;;;;;;;29.63;19.47;;;7.00;99.90;;;;;;5026653;28;20061;-64
2022/04/27 06:44:16;;;;;;;30.50;18.90;;;7.00;99.90;;;;;;5026240;28;20788;-65
2022/04/27 06:46:42;;;;;;;27.58;19.33;;;7.10;99.90;;;;;;5021216;28;20097;-65
2022/04/27 06:49:07;;;;;;;31.92;17.25;;;7.10;99.90;;;;;;5025665;28;20061;-64
2022/04/27 06:51:33;;;;;;;25.90;17.33;;;7.20;99.90;;;;;;5026972;28;21162;-65
2022/04/27 06:53:59;;;;;;;25.95;17.95;;;7.20;99.90;;;;;;5025452;28;20053;-65
2022/04/27 06:56:25;;;;;;;30.20;18.02;;;7.20;99.90;;;;;;5028860;28;20055;-65
2022/04/27 06:58:50;;;;;;;29.05;18.17;;;7.30;99.90;;;;;;5029189;28;20049;-65
2022/04/27 07:01:19;;;;;;;28.23;17.92;;;7.40;99.90;;;;;;5033284;28;20193;-65
2022/04/27 07:03:45;;;;;;;24.15;17.15;;;7.40;99.90;;;;;;5028376;28;20121;-65
2022/04/27 07:06:12;;;;;;;38.03;18.90;;;7.50;99.90;;;;;;5025642;28;20449;-65
2022/04/27 07:08:38;;;;;;;25.92;16.98;;;7.50;99.90;;;;;;5027562;28;20167;-66
2022/04/27 07:11:03;;;;;;;25.83;17.60;;;7.60;99.90;;;;;;5029054;28;20498;-65
2022/04/27 07:13:29;;;;;;;28.95;16.73;;;7.60;99.90;;;;;;5030226;28;20045;-65
2022/04/27 07:16:00;;;;;;;27.20;16.38;;;7.70;99.90;;;;;;5029131;28;20103;-66
2022/04/27 07:18:28;;;;;;;24.70;16.42;;;7.80;99.90;;;;;;5026325;28;20128;-65
2022/04/27 07:20:54;;;;;;;30.88;19.23;;;7.80;99.90;;;;;;5029975;28;20049;-65
2022/04/27 07:23:19;;;;;;;26.63;16.90;;;7.90;99.90;;;;;;5018502;28;20445;-65
2022/04/27 07:25:45;;;;;;;24.42;15.52;;;8.00;99.90;;;;;;5025486;28;20485;-65
2022/04/27 07:28:12;;;;;;;26.70;14.75;;;8.00;99.90;;;;;;5028174;28;20088;-65
2022/04/27 07:30:37;;;;;;;19.70;13.45;;;8.10;99.90;;;;;;5033927;28;20137;-65
2022/04/27 07:33:04;;;;;;;19.13;11.93;;;8.20;99.90;;;;;;5028863;28;20542;-65
2022/04/27 07:35:29;;;;;;;28.83;13.98;;;8.20;99.90;;;;;;5027192;28;20057;-65
2022/04/27 07:37:55;;;;;;;26.65;13.07;;;8.30;99.90;;;;;;5017868;28;20156;-65
2022/04/27 07:40:22;;;;;;;20.20;12.25;;;8.40;99.90;;;;;;5026872;28;20042;-65
2022/04/27 07:42:48;;;;;;;22.70;12.65;;;8.40;99.90;;;;;;5023524;28;20045;-65
2022/04/27 07:45:14;;;;;;;17.88;13.32;;;8.50;99.90;;;;;;5026416;28;20494;-65
2022/04/27 07:47:45;;;;;;;22.60;13.20;;;8.50;99.90;;;;;;5020436;28;20418;-65
2022/04/27 07:50:14;;;;;;;16.70;11.85;;;8.60;99.90;;;;;;5025167;28;20098;-65
2022/04/27 07:52:40;;;;;;;21.50;14.23;;;8.70;99.90;;;;;;5024739;28;20403;-65
2022/04/27 07:55:07;;;;;;;20.17;13.02;;;8.80;99.90;;;;;;5026837;28;20048;-65
2022/04/27 07:57:33;;;;;;;16.08;12.88;;;8.80;99.90;;;;;;5024425;28;20096;-65
2022/04/27 08:00:00;;;;;;;17.40;12.93;;;8.90;99.90;;;;;;5022572;28;20048;-65
2022/04/27 08:02:26;;;;;;;18.52;12.77;;;9.00;99.90;;;;;;5026058;28;20045;-65
2022/04/27 08:04:51;;;;;;;18.63;12.25;;;9.00;99.90;;;;;;5026300;28;20048;-65
2022/04/27 08:07:17;;;;;;;15.15;11.00;;;9.10;99.90;;;;;;5027351;28;20429;-65
2022/04/27 08:09:43;;;;;;;20.50;11.82;;;9.20;99.90;;;;;;5032046;28;20057;-65
2022/04/27 08:12:08;;;;;;;17.83;11.88;;;9.30;99.90;;;;;;5022785;28;20050;-65
2022/04/27 08:14:36;;;;;;;16.02;11.60;;;9.40;99.90;;;;;;5026912;28;20044;-66
2022/04/27 08:17:02;;;;;;;17.35;11.20;;;9.40;99.90;;;;;;5028580;28;20390;-65
2022/04/27 08:19:28;;;;;;;14.80;11.27;;;9.50;99.90;;;;;;5026293;28;20053;-65
2022/04/27 08:21:55;;;;;;;24.08;9.27;;;9.60;99.90;;;;;;5045846;28;20059;-65
2022/04/27 08:24:24;;;;;;;10.88;8.05;;;9.60;99.90;;;;;;5024791;28;20041;-65
2022/04/27 08:26:50;;;;;;;13.20;6.82;;;9.80;99.90;;;;;;5026897;28;20113;-65
2022/04/27 08:29:16;;;;;;;13.43;6.70;;;9.90;99.90;;;;;;5042108;28;20090;-65
2022/04/27 08:31:42;;;;;;;7.15;6.45;;;9.90;99.90;;;;;;5027306;28;20046;-65
2022/04/27 08:34:08;;;;;;;11.40;7.82;;;10.00;99.90;;;;;;5027647;28;20060;-65
2022/04/27 08:36:34;;;;;;;9.82;6.07;;;10.10;99.90;;;;;;5027351;28;20498;-65
2022/04/27 08:39:00;;;;;;;9.98;7.03;;;10.10;99.90;;;;;;5009543;28;20057;-65
2022/04/27 08:41:28;;;;;;;16.08;6.38;;;10.20;99.90;;;;;;5027530;28;20049;-65
2022/04/27 08:43:54;;;;;;;10.30;6.78;;;10.20;99.90;;;;;;5028475;28;20057;-65
2022/04/27 08:46:20;;;;;;;13.75;5.47;;;10.30;99.90;;;;;;5027694;28;20045;-65
2022/04/27 08:48:49;;;;;;;10.88;5.68;;;10.30;99.90;;;;;;5034955;28;20041;-65
2022/04/27 08:51:15;;;;;;;8.27;5.65;;;10.40;99.90;;;;;;5028286;28;20056;-65
2022/04/27 08:53:44;;;;;;;8.85;5.47;;;10.40;99.90;;;;;;5027108;28;20076;-65
2022/04/27 08:56:13;;;;;;;11.45;5.50;;;10.40;99.90;;;;;;5025640;28;20664;-65
2022/04/27 08:58:38;;;;;;;10.25;5.68;;;10.50;99.90;;;;;;5026025;28;20041;-65
2022/04/27 09:01:04;;;;;;;11.93;4.85;;;10.60;99.90;;;;;;5026415;28;20053;-65
2022/04/27 09:03:31;;;;;;;7.68;5.50;;;10.60;99.90;;;;;;5027592;28;20398;-65
2022/04/27 09:06:03;;;;;;;11.23;5.22;;;10.70;99.90;;;;;;5025167;28;20053;-65
2022/04/27 09:08:43;;;;;;;8.48;5.85;;;10.70;99.90;;;;;;5026367;28;20052;-65
2022/04/27 09:11:20;;;;;;;9.13;5.65;;;10.70;99.90;;;;;;5024528;28;20072;-66
2022/04/27 09:14:09;;;;;;;6.00;4.63;;;10.80;99.90;;;;;;5023820;28;20089;-65
2022/04/27 09:22:08;;;;;;;7.88;6.05;;;10.90;99.90;;;;;;5007021;28;20072;-66
2022/04/27 09:24:54;;;;;;;9.13;5.50;;;11.00;99.90;;;;;;5012201;28;20099;-65
2022/04/27 09:27:19;;;;;;;11.65;5.05;;;11.10;84.80;;;;;;5021429;28;20056;-65
2022/04/27 09:30:02;;;;;;;8.35;4.93;;;11.10;99.90;;;;;;5027556;28;20056;-65
2022/04/27 09:32:28;;;;;;;6.50;5.47;;;11.20;95.10;;;;;;5027249;28;20045;-65
2022/04/27 09:34:54;;;;;;;11.40;5.35;;;11.20;96.10;;;;;;5026553;28;20034;-66
2022/04/27 09:37:24;;;;;;;9.88;5.90;;;11.20;95.50;;;;;;5012611;28;20104;-65
2022/04/27 09:40:19;;;;;;;6.35;5.28;;;11.20;93.80;;;;;;5007687;28;20054;-65
2022/04/27 09:42:46;;;;;;;11.95;6.20;;;11.20;88.60;;;;;;5008888;28;20132;-65
2022/04/27 09:45:24;;;;;;;9.95;5.90;;;11.30;91.40;;;;;;5026978;28;20049;-65
2022/04/27 09:47:57;;;;;;;11.50;4.45;;;11.30;89.70;;;;;;5026033;28;20049;-65
2022/04/27 09:50:23;;;;;;;10.82;5.38;;;11.40;89.90;;;;;;5032959;28;20514;-65
2022/04/27 09:52:49;;;;;;;6.20;5.60;;;11.50;92.80;;;;;;5023980;28;20134;-65
2022/04/27 09:55:19;;;;;;;8.35;5.50;;;11.60;91.50;;;;;;5020898;28;20025;-65
2022/04/27 09:57:48;;;;;;;7.68;4.90;;;11.80;90.70;;;;;;5025874;28;20138;-65
2022/04/27 10:00:14;;;;;;;5.47;4.88;;;11.80;83.80;;;;;;5016567;28;20095;-65
2022/04/27 10:02:46;;;;;;;9.38;6.10;;;11.90;79.30;;;;;;5024219;28;20839;-65
2022/04/27 10:05:12;;;;;;;9.75;6.10;;;12.00;81.30;;;;;;5023758;28;20057;-65
2022/04/27 10:07:38;;;;;;;6.03;4.85;;;12.10;82.50;;;;;;5027436;28;20042;-64
2022/04/27 10:10:05;;;;;;;8.07;4.40;;;12.10;77.90;;;;;;5026086;28;20521;-65
2022/04/27 10:12:40;;;;;;;5.88;4.53;;;12.20;76.10;;;;;;5025913;28;20057;-65
2022/04/27 10:15:06;;;;;;;7.07;5.55;;;12.30;76.30;;;;;;5029356;28;20038;-65
2022/04/27 10:17:33;;;;;;;9.80;5.68;;;12.30;73.60;;;;;;5035137;28;20064;-65
2022/04/27 10:19:59;;;;;;;14.05;5.95;;;12.40;74.70;;;;;;5051297;28;20132;-65
2022/04/27 10:22:26;;;;;;;12.02;5.55;;;12.40;73.60;;;;;;5033308;28;20124;-65
2022/04/27 10:24:53;;;;;;;10.77;6.00;;;12.50;74.80;;;;;;5028225;28;20886;-65
2022/04/27 10:27:23;;;;;;;7.95;5.65;;;12.60;75.40;;;;;;5030997;28;20537;-65
2022/04/27 10:29:51;;;;;;;10.48;6.03;;;12.70;76.20;;;;;;5023373;28;20061;-65
2022/04/27 10:32:51;;;;;;;12.20;5.95;;;12.80;76.10;;;;;;5030915;28;20107;-65
2022/04/27 10:35:30;;;;;;;10.30;6.22;;;12.80;71.00;;;;;;5022638;28;20069;-65
2022/04/27 10:37:58;;;;;;;13.38;6.55;;;12.90;74.00;;;;;;5030340;28;20041;-65
2022/04/27 10:40:34;;;;;;;6.05;5.18;;;13.00;73.90;;;;;;5029967;28;20046;-65
2022/04/27 10:43:03;;;;;;;10.85;5.30;;;13.20;76.30;;;;;;5029451;28;20042;-65
2022/04/27 10:45:29;;;;;;;10.93;6.45;;;13.30;73.30;;;;;;5026240;28;20056;-65
2022/04/27 10:47:54;;;;;;;9.77;6.57;;;13.40;76.50;;;;;;5023562;28;20048;-65
2022/04/27 10:50:23;;;;;;;14.57;6.25;;;13.40;74.70;;;;;;5030456;28;20073;-65
2022/04/27 10:52:52;;;;;;;7.80;6.05;;;13.60;74.60;;;;;;5028305;28;20068;-65
2022/04/27 10:55:47;;;;;;;8.13;5.50;;;13.60;71.90;;;;;;5030990;28;20116;-65
2022/04/27 10:58:35;;;;;;;9.02;5.18;;;13.60;69.40;;;;;;5026817;28;20536;-64
2022/04/27 11:01:05;;;;;;;13.18;6.50;;;13.60;70.10;;;;;;5029851;28;20058;-65
2022/04/27 11:03:36;;;;;;;14.57;6.78;;;13.60;70.60;;;;;;5029965;28;20503;-65
2022/04/27 11:06:09;;;;;;;7.65;4.88;;;13.60;69.40;;;;;;5048668;28;20048;-65
2022/04/27 11:08:56;;;;;;;9.15;5.85;;;13.50;68.90;;;;;;5042649;28;20057;-65
2022/04/27 11:11:27;;;;;;;13.35;6.68;;;13.50;66.70;;;;;;5029726;28;20525;-65
2022/04/27 11:14:00;;;;;;;14.40;7.05;;;13.60;69.90;;;;;;5028976;28;20089;-65
2022/04/27 11:16:26;;;;;;;6.13;5.43;;;13.60;69.10;;;;;;5029341;28;20565;-65
2022/04/27 11:18:57;;;;;;;7.75;5.55;;;13.80;69.60;;;;;;5027224;28;20064;-64
2022/04/27 11:21:30;;;;;;;9.00;6.68;;;13.80;68.60;;;;;;5027933;28;20502;-64
2022/04/27 11:23:58;;;;;;;8.18;6.18;;;13.90;68.20;;;;;;5027904;28;20120;-65
2022/04/27 11:26:24;;;;;;;8.38;5.75;;;14.00;70.50;;;;;;5028347;28;20041;-64
2022/04/27 11:28:53;;;;;;;10.52;6.32;;;13.80;67.10;;;;;;5027663;28;20446;-64
2022/04/27 11:31:19;;;;;;;10.00;5.15;;;13.70;67.50;;;;;;5028734;28;20144;-65
2022/04/27 11:33:45;;;;;;;13.30;6.10;;;13.80;66.10;;;;;;5028435;28;20095;-64
2022/04/27 11:36:20;;;;;;;11.07;5.15;;;13.90;65.20;;;;;;5026898;28;20037;-65
2022/04/27 11:38:46;;;;;;;9.35;5.65;;;13.90;65.20;;;;;;5025904;28;20442;-65
2022/04/27 11:41:20;;;;;;;7.97;5.53;;;14.00;67.90;;;;;;5029575;28;20037;-65
2022/04/27 11:43:49;;;;;;;8.73;6.03;;;14.10;66.70;;;;;;5026755;28;20041;-65
2022/04/27 11:46:15;;;;;;;10.27;5.82;;;14.10;68.00;;;;;;5029108;28;20505;-65
2022/04/27 11:48:46;;;;;;;11.35;6.30;;;14.30;69.40;;;;;;5028481;28;20044;-65
2022/04/27 11:51:12;;;;;;;19.88;7.45;;;14.40;68.70;;;;;;5028646;28;20045;-65
2022/04/27 11:53:47;;;;;;;8.07;6.13;;;14.50;67.20;;;;;;5029050;28;20048;-65
2022/04/27 11:56:13;;;;;;;14.18;6.53;;;14.60;66.10;;;;;;5029445;28;20664;-65
2022/04/27 11:58:40;;;;;;;12.02;6.25;;;14.50;67.10;;;;;;5027098;28;20510;-65
2022/04/27 12:01:05;;;;;;;15.05;7.25;;;14.50;66.30;;;;;;5028585;28;20532;-65
2022/04/27 12:03:40;;;;;;;12.18;6.53;;;14.40;66.10;;;;;;5040639;28;20078;-65
2022/04/27 12:06:06;;;;;;;8.40;6.28;;;14.50;65.30;;;;;;5035416;28;20402;-65
2022/04/27 12:08:33;;;;;;;15.65;8.00;;;14.60;67.90;;;;;;5040104;28;20049;-65
2022/04/27 12:11:01;;;;;;;12.30;6.95;;;14.60;68.80;;;;;;5032590;28;20510;-65
2022/04/27 12:13:27;;;;;;;;;;;14.60;67.50;;;;;;5035639;28;20140;-65
2022/04/27 12:15:54;;;;;;;17.58;8.23;;;14.60;66.10;;;;;;5017696;28;19921;-65
2022/04/27 12:18:24;;;;;;;12.45;7.40;;;14.60;68.80;;;;;;5027046;28;20102;-65
2022/04/27 12:20:50;;;;;;;16.17;7.65;;;14.70;66.70;;;;;;5033170;28;20049;-65
2022/04/27 12:23:39;;;;;;;19.85;7.93;;;14.70;67.80;;;;;;5034410;28;20128;-64
2022/04/27 12:26:06;;;;;;;27.52;8.68;;;14.40;64.60;;;;;;5025130;28;20053;-64
2022/04/27 12:28:41;;;;;;;26.08;9.82;;;14.30;69.10;;;;;;5031504;28;20081;-64
2022/04/27 12:31:08;;;;;;;21.83;8.38;;;14.40;69.60;;;;;;5034502;28;20833;-63
2022/04/27 12:33:38;;;;;;;11.95;7.53;;;14.20;69.40;;;;;;5033145;28;20917;-64
2022/04/27 12:39:10;;;;;;;13.98;8.27;;;14.40;68.90;;;;;;5019679;28;20067;-64
2022/04/27 12:41:42;;;;;;;19.90;8.88;;;14.40;69.50;;;;;;5019586;28;20185;-64
2022/04/27 12:44:13;;;;;;;14.02;8.77;;;14.50;70.40;;;;;;5018464;28;20526;-63
2022/04/27 12:47:01;;;;;;;13.45;7.30;;;14.90;70.60;;;;;;5039330;28;20068;-64
2022/04/27 12:49:35;;;;;;;13.45;7.85;;;15.20;68.80;;;;;;5030595;28;20048;-64
2022/04/27 12:52:17;;;;;;;12.65;7.10;;;15.30;67.80;;;;;;5036737;28;20067;-64
2022/04/27 12:54:47;;;;;;;21.73;8.02;;;15.20;65.90;;;;;;5024260;28;20533;-65
2022/04/27 12:57:14;;;;;;;12.07;7.50;;;15.10;67.30;;;;;;5039147;28;20510;-64
2022/04/27 12:59:57;;;;;;;12.05;7.57;;;15.30;69.00;;;;;;5036598;28;20042;-64